sensor_id;sensor_type;location;lat;lon;timestamp;P1;durP1;ratioP1;P2;durP2;ratioP2
9689;SDS011;4884;42.614;23.340;2023-07-20T00:02:11;5.90;;;4.60;;
9689;SDS011;4884;42.614;23.340;2023-07-20T00:04:37;4.87;;;3.57;;
9689;SDS011;4884;42.614;23.340;2023-07-20T00:07:03;6.77;;;3.57;;
9689;SDS011;4884;42.614;23.340;2023-07-20T00:09:28;5.63;;;3.77;;
9689;SDS011;4884;42.614;23.340;2023-07-20T00:11:54;6.80;;;3.47;;
9689;SDS011;4884;42.614;23.340;2023-07-20T00:14:20;6.63;;;3.43;;
9689;SDS011;4884;42.614;23.340;2023-07-20T00:16:46;6.63;;;3.60;;
9689;SDS011;4884;42.614;23.340;2023-07-20T00:19:12;9.23;;;4.23;;
9689;SDS011;4884;42.614;23.340;2023-07-20T00:21:37;6.20;;;4.30;;
9689;SDS011;4884;42.614;23.340;2023-07-20T00:24:05;10.93;;;3.77;;
9689;SDS011;4884;42.614;23.340;2023-07-20T00:26:31;7.63;;;4.23;;
9689;SDS011;4884;42.614;23.340;2023-07-20T00:28:56;7.47;;;3.90;;
9689;SDS011;4884;42.614;23.340;2023-07-20T00:31:21;7.37;;;4.40;;
9689;SDS011;4884;42.614;23.340;2023-07-20T00:33:47;6.17;;;4.00;;
9689;SDS011;4884;42.614;23.340;2023-07-20T00:36:12;7.67;;;4.27;;
9689;SDS011;4884;42.614;23.340;2023-07-20T00:38:38;6.07;;;4.17;;
9689;SDS011;4884;42.614;23.340;2023-07-20T00:41:04;6.57;;;4.13;;
9689;SDS011;4884;42.614;23.340;2023-07-20T00:43:29;7.97;;;4.20;;
9689;SDS011;4884;42.614;23.340;2023-07-20T00:45:55;8.80;;;4.30;;
9689;SDS011;4884;42.614;23.340;2023-07-20T00:48:20;8.97;;;4.13;;
9689;SDS011;4884;42.614;23.340;2023-07-20T00:50:46;9.30;;;4.27;;
9689;SDS011;4884;42.614;23.340;2023-07-20T00:53:12;4.60;;;3.97;;
9689;SDS011;4884;42.614;23.340;2023-07-20T00:55:38;10.23;;;4.40;;
9689;SDS011;4884;42.614;23.340;2023-07-20T00:58:03;10.20;;;4.00;;
9689;SDS011;4884;42.614;23.340;2023-07-20T01:00:29;6.30;;;4.63;;
9689;SDS011;4884;42.614;23.340;2023-07-20T01:02:55;6.67;;;4.03;;
9689;SDS011;4884;42.614;23.340;2023-07-20T01:05:21;5.10;;;3.93;;
9689;SDS011;4884;42.614;23.340;2023-07-20T01:10:36;8.33;;;4.20;;
9689;SDS011;4884;42.614;23.340;2023-07-20T01:13:04;7.83;;;5.17;;
9689;SDS011;4884;42.614;23.340;2023-07-20T01:15:33;6.13;;;3.83;;
9689;SDS011;4884;42.614;23.340;2023-07-20T01:17:59;9.67;;;4.20;;
9689;SDS011;4884;42.614;23.340;2023-07-20T01:20:26;7.63;;;4.40;;
9689;SDS011;4884;42.614;23.340;2023-07-20T01:23:00;8.23;;;4.33;;
9689;SDS011;4884;42.614;23.340;2023-07-20T01:33:41;7.20;;;4.10;;
9689;SDS011;4884;42.614;23.340;2023-07-20T01:36:07;6.03;;;4.37;;
9689;SDS011;4884;42.614;23.340;2023-07-20T01:38:33;12.07;;;4.43;;
9689;SDS011;4884;42.614;23.340;2023-07-20T01:40:59;8.17;;;4.60;;
9689;SDS011;4884;42.614;23.340;2023-07-20T01:43:24;8.00;;;4.50;;
9689;SDS011;4884;42.614;23.340;2023-07-20T01:45:50;9.37;;;4.17;;
9689;SDS011;4884;42.614;23.340;2023-07-20T01:48:15;7.90;;;4.37;;
9689;SDS011;4884;42.614;23.340;2023-07-20T01:50:41;7.43;;;4.03;;
9689;SDS011;4884;42.614;23.340;2023-07-20T01:53:06;6.43;;;4.27;;
9689;SDS011;4884;42.614;23.340;2023-07-20T01:55:31;11.50;;;4.67;;
9689;SDS011;4884;42.614;23.340;2023-07-20T01:57:57;9.87;;;4.33;;
9689;SDS011;4884;42.614;23.340;2023-07-20T02:00:25;7.30;;;3.97;;
9689;SDS011;4884;42.614;23.340;2023-07-20T02:02:50;8.47;;;5.07;;
9689;SDS011;4884;42.614;23.340;2023-07-20T02:05:16;10.20;;;4.80;;
9689;SDS011;4884;42.614;23.340;2023-07-20T02:07:42;6.57;;;4.97;;
9689;SDS011;4884;42.614;23.340;2023-07-20T02:10:08;8.57;;;4.53;;
9689;SDS011;4884;42.614;23.340;2023-07-20T02:12:33;7.20;;;4.63;;
9689;SDS011;4884;42.614;23.340;2023-07-20T02:14:59;6.07;;;4.50;;
9689;SDS011;4884;42.614;23.340;2023-07-20T02:17:24;13.10;;;5.67;;
9689;SDS011;4884;42.614;23.340;2023-07-20T02:19:50;6.50;;;4.10;;
9689;SDS011;4884;42.614;23.340;2023-07-20T02:22:17;10.23;;;4.67;;
9689;SDS011;4884;42.614;23.340;2023-07-20T02:24:43;8.00;;;4.07;;
9689;SDS011;4884;42.614;23.340;2023-07-20T02:27:08;10.23;;;4.17;;
9689;SDS011;4884;42.614;23.340;2023-07-20T02:29:33;12.37;;;4.57;;
9689;SDS011;4884;42.614;23.340;2023-07-20T02:31:59;6.93;;;4.47;;
9689;SDS011;4884;42.614;23.340;2023-07-20T02:34:24;5.90;;;4.10;;
9689;SDS011;4884;42.614;23.340;2023-07-20T02:36:50;12.63;;;3.93;;
9689;SDS011;4884;42.614;23.340;2023-07-20T02:39:15;12.10;;;3.80;;
9689;SDS011;4884;42.614;23.340;2023-07-20T02:41:41;7.67;;;3.70;;
9689;SDS011;4884;42.614;23.340;2023-07-20T02:44:06;7.57;;;3.80;;
9689;SDS011;4884;42.614;23.340;2023-07-20T02:46:32;6.07;;;3.83;;
9689;SDS011;4884;42.614;23.340;2023-07-20T02:48:57;15.13;;;4.50;;
9689;SDS011;4884;42.614;23.340;2023-07-20T02:51:23;11.43;;;4.20;;
9689;SDS011;4884;42.614;23.340;2023-07-20T02:53:48;10.03;;;4.37;;
9689;SDS011;4884;42.614;23.340;2023-07-20T02:56:14;9.67;;;5.67;;
9689;SDS011;4884;42.614;23.340;2023-07-20T02:58:41;10.13;;;5.40;;
9689;SDS011;4884;42.614;23.340;2023-07-20T03:01:11;9.40;;;4.70;;
9689;SDS011;4884;42.614;23.340;2023-07-20T03:03:37;12.20;;;5.70;;
9689;SDS011;4884;42.614;23.340;2023-07-20T03:06:03;9.10;;;5.40;;
9689;SDS011;4884;42.614;23.340;2023-07-20T03:08:28;19.00;;;11.10;;
9689;SDS011;4884;42.614;23.340;2023-07-20T03:10:55;101.13;;;74.47;;
9689;SDS011;4884;42.614;23.340;2023-07-20T03:13:20;69.23;;;55.73;;
9689;SDS011;4884;42.614;23.340;2023-07-20T03:15:46;61.60;;;47.70;;
9689;SDS011;4884;42.614;23.340;2023-07-20T03:18:11;41.27;;;33.60;;
9689;SDS011;4884;42.614;23.340;2023-07-20T03:20:36;31.53;;;23.80;;
9689;SDS011;4884;42.614;23.340;2023-07-20T03:23:03;25.00;;;17.50;;
9689;SDS011;4884;42.614;23.340;2023-07-20T03:25:28;15.97;;;12.67;;
9689;SDS011;4884;42.614;23.340;2023-07-20T03:27:53;15.67;;;12.87;;
9689;SDS011;4884;42.614;23.340;2023-07-20T03:30:19;14.27;;;11.77;;
9689;SDS011;4884;42.614;23.340;2023-07-20T03:32:44;16.97;;;10.43;;
9689;SDS011;4884;42.614;23.340;2023-07-20T03:35:10;12.87;;;5.97;;
9689;SDS011;4884;42.614;23.340;2023-07-20T03:37:35;7.33;;;3.90;;
9689;SDS011;4884;42.614;23.340;2023-07-20T03:40:02;8.50;;;4.47;;
9689;SDS011;4884;42.614;23.340;2023-07-20T03:42:28;10.90;;;5.40;;
9689;SDS011;4884;42.614;23.340;2023-07-20T03:44:53;10.47;;;6.47;;
9689;SDS011;4884;42.614;23.340;2023-07-20T03:47:18;8.90;;;5.27;;
9689;SDS011;4884;42.614;23.340;2023-07-20T03:49:44;8.13;;;4.43;;
9689;SDS011;4884;42.614;23.340;2023-07-20T03:52:09;11.33;;;5.07;;
9689;SDS011;4884;42.614;23.340;2023-07-20T03:54:35;10.63;;;4.77;;
9689;SDS011;4884;42.614;23.340;2023-07-20T03:57:00;7.03;;;4.97;;
9689;SDS011;4884;42.614;23.340;2023-07-20T03:59:25;8.73;;;4.37;;
9689;SDS011;4884;42.614;23.340;2023-07-20T04:01:51;11.37;;;5.40;;
9689;SDS011;4884;42.614;23.340;2023-07-20T04:04:16;11.20;;;4.73;;
9689;SDS011;4884;42.614;23.340;2023-07-20T04:06:42;9.17;;;5.20;;
9689;SDS011;4884;42.614;23.340;2023-07-20T04:09:11;6.20;;;3.90;;
9689;SDS011;4884;42.614;23.340;2023-07-20T04:11:37;5.57;;;4.20;;
9689;SDS011;4884;42.614;23.340;2023-07-20T04:14:02;10.67;;;5.53;;
9689;SDS011;4884;42.614;23.340;2023-07-20T04:16:27;8.60;;;4.13;;
9689;SDS011;4884;42.614;23.340;2023-07-20T04:18:56;10.20;;;4.53;;
9689;SDS011;4884;42.614;23.340;2023-07-20T04:21:23;8.20;;;4.87;;
9689;SDS011;4884;42.614;23.340;2023-07-20T04:23:50;6.50;;;4.03;;
9689;SDS011;4884;42.614;23.340;2023-07-20T04:26:16;8.00;;;4.53;;
9689;SDS011;4884;42.614;23.340;2023-07-20T04:28:41;7.57;;;4.50;;
9689;SDS011;4884;42.614;23.340;2023-07-20T04:31:11;6.40;;;4.77;;
9689;SDS011;4884;42.614;23.340;2023-07-20T04:33:40;16.53;;;4.53;;
9689;SDS011;4884;42.614;23.340;2023-07-20T04:36:06;7.70;;;4.47;;
9689;SDS011;4884;42.614;23.340;2023-07-20T04:38:32;9.63;;;4.43;;
9689;SDS011;4884;42.614;23.340;2023-07-20T04:40:57;7.63;;;5.13;;
9689;SDS011;4884;42.614;23.340;2023-07-20T04:43:23;8.20;;;4.47;;
9689;SDS011;4884;42.614;23.340;2023-07-20T04:45:48;8.73;;;4.97;;
9689;SDS011;4884;42.614;23.340;2023-07-20T04:48:15;11.03;;;4.57;;
9689;SDS011;4884;42.614;23.340;2023-07-20T04:50:42;11.37;;;4.90;;
9689;SDS011;4884;42.614;23.340;2023-07-20T04:53:11;10.20;;;4.67;;
9689;SDS011;4884;42.614;23.340;2023-07-20T04:55:39;15.40;;;6.90;;
9689;SDS011;4884;42.614;23.340;2023-07-20T04:58:05;6.77;;;4.27;;
9689;SDS011;4884;42.614;23.340;2023-07-20T05:00:34;7.37;;;4.53;;
9689;SDS011;4884;42.614;23.340;2023-07-20T05:03:00;8.43;;;5.27;;
9689;SDS011;4884;42.614;23.340;2023-07-20T05:05:25;8.73;;;5.33;;
9689;SDS011;4884;42.614;23.340;2023-07-20T05:07:51;8.03;;;5.20;;
9689;SDS011;4884;42.614;23.340;2023-07-20T05:10:17;10.27;;;4.70;;
9689;SDS011;4884;42.614;23.340;2023-07-20T05:12:42;9.20;;;5.27;;
9689;SDS011;4884;42.614;23.340;2023-07-20T05:15:08;8.90;;;5.07;;
9689;SDS011;4884;42.614;23.340;2023-07-20T05:17:34;9.03;;;5.10;;
9689;SDS011;4884;42.614;23.340;2023-07-20T05:19:59;5.23;;;4.13;;
9689;SDS011;4884;42.614;23.340;2023-07-20T05:22:24;11.53;;;4.87;;
9689;SDS011;4884;42.614;23.340;2023-07-20T05:24:50;11.97;;;5.40;;
9689;SDS011;4884;42.614;23.340;2023-07-20T05:27:15;10.27;;;5.53;;
9689;SDS011;4884;42.614;23.340;2023-07-20T05:29:44;9.37;;;4.97;;
9689;SDS011;4884;42.614;23.340;2023-07-20T05:32:10;5.47;;;4.17;;
9689;SDS011;4884;42.614;23.340;2023-07-20T05:34:35;7.07;;;4.80;;
9689;SDS011;4884;42.614;23.340;2023-07-20T05:37:10;12.60;;;5.50;;
9689;SDS011;4884;42.614;23.340;2023-07-20T05:39:35;7.23;;;4.77;;
9689;SDS011;4884;42.614;23.340;2023-07-20T05:42:01;9.90;;;5.33;;
9689;SDS011;4884;42.614;23.340;2023-07-20T05:44:26;7.80;;;4.57;;
9689;SDS011;4884;42.614;23.340;2023-07-20T05:46:52;6.23;;;4.27;;
9689;SDS011;4884;42.614;23.340;2023-07-20T05:49:17;11.40;;;4.77;;
9689;SDS011;4884;42.614;23.340;2023-07-20T05:51:42;10.17;;;4.80;;
9689;SDS011;4884;42.614;23.340;2023-07-20T05:54:08;6.03;;;5.20;;
9689;SDS011;4884;42.614;23.340;2023-07-20T05:56:33;9.57;;;5.30;;
9689;SDS011;4884;42.614;23.340;2023-07-20T05:58:58;10.40;;;5.37;;
9689;SDS011;4884;42.614;23.340;2023-07-20T06:01:24;12.07;;;5.50;;
9689;SDS011;4884;42.614;23.340;2023-07-20T06:03:52;13.67;;;5.63;;
9689;SDS011;4884;42.614;23.340;2023-07-20T06:06:18;8.87;;;4.73;;
9689;SDS011;4884;42.614;23.340;2023-07-20T06:08:44;9.77;;;4.60;;
9689;SDS011;4884;42.614;23.340;2023-07-20T06:11:09;9.43;;;5.10;;
9689;SDS011;4884;42.614;23.340;2023-07-20T06:13:35;8.83;;;5.10;;
9689;SDS011;4884;42.614;23.340;2023-07-20T06:16:00;11.60;;;4.97;;
9689;SDS011;4884;42.614;23.340;2023-07-20T06:18:26;8.23;;;5.47;;
9689;SDS011;4884;42.614;23.340;2023-07-20T06:20:52;9.93;;;4.70;;
9689;SDS011;4884;42.614;23.340;2023-07-20T06:23:18;12.90;;;5.63;;
9689;SDS011;4884;42.614;23.340;2023-07-20T06:25:44;10.93;;;5.00;;
9689;SDS011;4884;42.614;23.340;2023-07-20T06:28:09;9.20;;;4.95;;
9689;SDS011;4884;42.614;23.340;2023-07-20T06:30:35;12.00;;;5.10;;
9689;SDS011;4884;42.614;23.340;2023-07-20T06:33:00;6.75;;;4.72;;
9689;SDS011;4884;42.614;23.340;2023-07-20T06:35:25;13.25;;;4.95;;
9689;SDS011;4884;42.614;23.340;2023-07-20T06:37:51;8.02;;;5.00;;
9689;SDS011;4884;42.614;23.340;2023-07-20T06:40:17;10.77;;;4.68;;
9689;SDS011;4884;42.614;23.340;2023-07-20T06:42:42;10.73;;;5.18;;
9689;SDS011;4884;42.614;23.340;2023-07-20T06:45:08;8.77;;;4.30;;
9689;SDS011;4884;42.614;23.340;2023-07-20T06:47:34;9.75;;;4.35;;
9689;SDS011;4884;42.614;23.340;2023-07-20T06:49:59;10.82;;;5.82;;
9689;SDS011;4884;42.614;23.340;2023-07-20T06:52:25;9.23;;;4.70;;
9689;SDS011;4884;42.614;23.340;2023-07-20T06:54:50;10.30;;;4.40;;
9689;SDS011;4884;42.614;23.340;2023-07-20T06:57:16;7.22;;;4.15;;
9689;SDS011;4884;42.614;23.340;2023-07-20T06:59:41;15.43;;;5.10;;
9689;SDS011;4884;42.614;23.340;2023-07-20T07:02:07;12.88;;;5.72;;
9689;SDS011;4884;42.614;23.340;2023-07-20T07:04:33;8.50;;;4.78;;
9689;SDS011;4884;42.614;23.340;2023-07-20T07:06:59;12.15;;;5.10;;
9689;SDS011;4884;42.614;23.340;2023-07-20T07:09:25;10.63;;;4.95;;
9689;SDS011;4884;42.614;23.340;2023-07-20T07:11:50;7.10;;;5.22;;
9689;SDS011;4884;42.614;23.340;2023-07-20T07:14:15;12.65;;;4.75;;
9689;SDS011;4884;42.614;23.340;2023-07-20T07:16:41;10.13;;;5.18;;
9689;SDS011;4884;42.614;23.340;2023-07-20T07:19:06;11.80;;;5.38;;
9689;SDS011;4884;42.614;23.340;2023-07-20T07:21:33;13.07;;;5.70;;
9689;SDS011;4884;42.614;23.340;2023-07-20T07:23:58;13.52;;;5.43;;
9689;SDS011;4884;42.614;23.340;2023-07-20T07:26:25;8.18;;;4.63;;
9689;SDS011;4884;42.614;23.340;2023-07-20T07:28:50;11.18;;;5.35;;
9689;SDS011;4884;42.614;23.340;2023-07-20T07:31:16;11.15;;;5.20;;
9689;SDS011;4884;42.614;23.340;2023-07-20T07:33:41;8.20;;;4.22;;
9689;SDS011;4884;42.614;23.340;2023-07-20T07:36:06;9.70;;;4.60;;
9689;SDS011;4884;42.614;23.340;2023-07-20T07:38:32;13.30;;;4.93;;
9689;SDS011;4884;42.614;23.340;2023-07-20T07:40:58;10.85;;;4.35;;
9689;SDS011;4884;42.614;23.340;2023-07-20T07:43:24;12.50;;;5.03;;
9689;SDS011;4884;42.614;23.340;2023-07-20T07:45:49;11.05;;;5.32;;
9689;SDS011;4884;42.614;23.340;2023-07-20T07:48:14;9.02;;;4.97;;
9689;SDS011;4884;42.614;23.340;2023-07-20T07:50:40;14.70;;;6.25;;
9689;SDS011;4884;42.614;23.340;2023-07-20T07:53:05;8.15;;;4.30;;
9689;SDS011;4884;42.614;23.340;2023-07-20T07:55:32;14.38;;;5.70;;
9689;SDS011;4884;42.614;23.340;2023-07-20T07:57:58;11.32;;;5.72;;
9689;SDS011;4884;42.614;23.340;2023-07-20T08:00:23;9.52;;;5.72;;
9689;SDS011;4884;42.614;23.340;2023-07-20T08:02:49;13.15;;;6.30;;
9689;SDS011;4884;42.614;23.340;2023-07-20T08:05:15;12.80;;;5.30;;
9689;SDS011;4884;42.614;23.340;2023-07-20T08:07:41;11.05;;;6.05;;
9689;SDS011;4884;42.614;23.340;2023-07-20T08:10:06;12.05;;;5.85;;
9689;SDS011;4884;42.614;23.340;2023-07-20T08:12:32;10.07;;;5.70;;
9689;SDS011;4884;42.614;23.340;2023-07-20T08:14:58;15.73;;;5.95;;
9689;SDS011;4884;42.614;23.340;2023-07-20T08:17:23;14.98;;;6.60;;
9689;SDS011;4884;42.614;23.340;2023-07-20T08:19:49;11.63;;;6.55;;
9689;SDS011;4884;42.614;23.340;2023-07-20T08:22:14;10.90;;;5.95;;
9689;SDS011;4884;42.614;23.340;2023-07-20T08:24:40;12.80;;;5.80;;
9689;SDS011;4884;42.614;23.340;2023-07-20T08:27:07;10.50;;;6.22;;
9689;SDS011;4884;42.614;23.340;2023-07-20T08:29:33;16.63;;;5.45;;
9689;SDS011;4884;42.614;23.340;2023-07-20T08:31:58;13.30;;;5.88;;
9689;SDS011;4884;42.614;23.340;2023-07-20T08:34:24;13.57;;;4.50;;
9689;SDS011;4884;42.614;23.340;2023-07-20T08:36:49;6.25;;;4.50;;
9689;SDS011;4884;42.614;23.340;2023-07-20T08:39:15;11.88;;;4.15;;
9689;SDS011;4884;42.614;23.340;2023-07-20T08:41:41;10.40;;;4.32;;
9689;SDS011;4884;42.614;23.340;2023-07-20T08:44:07;5.03;;;3.75;;
9689;SDS011;4884;42.614;23.340;2023-07-20T08:46:33;9.80;;;4.22;;
9689;SDS011;4884;42.614;23.340;2023-07-20T08:49:00;9.70;;;3.80;;
9689;SDS011;4884;42.614;23.340;2023-07-20T08:51:27;9.63;;;4.05;;
9689;SDS011;4884;42.614;23.340;2023-07-20T08:53:53;8.80;;;3.97;;
9689;SDS011;4884;42.614;23.340;2023-07-20T08:56:19;11.25;;;4.18;;
9689;SDS011;4884;42.614;23.340;2023-07-20T08:58:46;6.75;;;4.40;;
9689;SDS011;4884;42.614;23.340;2023-07-20T09:01:11;9.75;;;3.38;;
9689;SDS011;4884;42.614;23.340;2023-07-20T09:03:37;8.55;;;3.95;;
9689;SDS011;4884;42.614;23.340;2023-07-20T09:06:04;8.02;;;4.25;;
9689;SDS011;4884;42.614;23.340;2023-07-20T09:08:30;10.18;;;4.38;;
9689;SDS011;4884;42.614;23.340;2023-07-20T09:10:56;7.38;;;3.47;;
9689;SDS011;4884;42.614;23.340;2023-07-20T09:13:22;9.55;;;3.55;;
9689;SDS011;4884;42.614;23.340;2023-07-20T09:15:53;8.57;;;3.22;;
9689;SDS011;4884;42.614;23.340;2023-07-20T09:18:26;8.82;;;3.30;;
9689;SDS011;4884;42.614;23.340;2023-07-20T09:20:54;8.95;;;3.53;;
9689;SDS011;4884;42.614;23.340;2023-07-20T09:23:29;10.85;;;3.50;;
9689;SDS011;4884;42.614;23.340;2023-07-20T09:25:58;6.20;;;3.28;;
9689;SDS011;4884;42.614;23.340;2023-07-20T09:28:24;8.20;;;3.70;;
9689;SDS011;4884;42.614;23.340;2023-07-20T09:30:49;10.50;;;3.90;;
9689;SDS011;4884;42.614;23.340;2023-07-20T09:33:18;6.80;;;3.05;;
9689;SDS011;4884;42.614;23.340;2023-07-20T09:35:46;8.60;;;3.50;;
9689;SDS011;4884;42.614;23.340;2023-07-20T09:38:11;7.78;;;3.40;;
9689;SDS011;4884;42.614;23.340;2023-07-20T09:40:37;6.95;;;3.88;;
9689;SDS011;4884;42.614;23.340;2023-07-20T09:43:04;4.88;;;3.05;;
9689;SDS011;4884;42.614;23.340;2023-07-20T09:45:33;9.48;;;3.25;;
9689;SDS011;4884;42.614;23.340;2023-07-20T09:48:06;9.60;;;4.05;;
9689;SDS011;4884;42.614;23.340;2023-07-20T09:50:32;6.57;;;3.33;;
9689;SDS011;4884;42.614;23.340;2023-07-20T09:52:58;8.75;;;3.17;;
9689;SDS011;4884;42.614;23.340;2023-07-20T09:55:26;3.33;;;2.78;;
9689;SDS011;4884;42.614;23.340;2023-07-20T09:57:52;9.38;;;3.78;;
9689;SDS011;4884;42.614;23.340;2023-07-20T10:00:19;6.47;;;3.88;;
9689;SDS011;4884;42.614;23.340;2023-07-20T10:02:45;8.05;;;2.90;;
9689;SDS011;4884;42.614;23.340;2023-07-20T10:05:12;7.22;;;3.25;;
9689;SDS011;4884;42.614;23.340;2023-07-20T10:07:45;9.38;;;3.90;;
9689;SDS011;4884;42.614;23.340;2023-07-20T10:10:13;7.32;;;3.50;;
9689;SDS011;4884;42.614;23.340;2023-07-20T10:12:40;7.38;;;3.72;;
9689;SDS011;4884;42.614;23.340;2023-07-20T10:17:48;9.35;;;3.97;;
9689;SDS011;4884;42.614;23.340;2023-07-20T10:20:19;6.82;;;3.05;;
9689;SDS011;4884;42.614;23.340;2023-07-20T10:22:45;5.22;;;3.38;;
9689;SDS011;4884;42.614;23.340;2023-07-20T10:25:13;7.43;;;3.70;;
9689;SDS011;4884;42.614;23.340;2023-07-20T10:27:39;6.35;;;2.72;;
9689;SDS011;4884;42.614;23.340;2023-07-20T10:30:05;11.48;;;3.20;;
9689;SDS011;4884;42.614;23.340;2023-07-20T10:32:31;7.43;;;3.22;;
9689;SDS011;4884;42.614;23.340;2023-07-20T10:34:56;6.30;;;3.40;;
9689;SDS011;4884;42.614;23.340;2023-07-20T10:40:24;11.40;;;2.90;;
9689;SDS011;4884;42.614;23.340;2023-07-20T10:42:50;6.80;;;3.53;;
9689;SDS011;4884;42.614;23.340;2023-07-20T10:45:17;9.35;;;4.10;;
9689;SDS011;4884;42.614;23.340;2023-07-20T10:47:46;10.45;;;3.45;;
9689;SDS011;4884;42.614;23.340;2023-07-20T10:50:11;7.50;;;4.07;;
9689;SDS011;4884;42.614;23.340;2023-07-20T10:52:40;11.43;;;4.15;;
9689;SDS011;4884;42.614;23.340;2023-07-20T10:55:15;6.90;;;3.45;;
9689;SDS011;4884;42.614;23.340;2023-07-20T10:57:41;5.88;;;3.28;;
9689;SDS011;4884;42.614;23.340;2023-07-20T11:00:11;8.13;;;3.10;;
9689;SDS011;4884;42.614;23.340;2023-07-20T11:02:58;6.85;;;3.67;;
9689;SDS011;4884;42.614;23.340;2023-07-20T11:05:37;4.90;;;3.22;;
9689;SDS011;4884;42.614;23.340;2023-07-20T11:08:04;8.20;;;3.80;;
9689;SDS011;4884;42.614;23.340;2023-07-20T11:10:31;5.47;;;3.70;;
9689;SDS011;4884;42.614;23.340;2023-07-20T11:15:47;8.23;;;3.95;;
9689;SDS011;4884;42.614;23.340;2023-07-20T11:18:16;10.05;;;3.92;;
9689;SDS011;4884;42.614;23.340;2023-07-20T11:20:41;8.50;;;3.65;;
9689;SDS011;4884;42.614;23.340;2023-07-20T11:23:07;7.25;;;3.60;;
9689;SDS011;4884;42.614;23.340;2023-07-20T11:25:39;10.25;;;4.78;;
9689;SDS011;4884;42.614;23.340;2023-07-20T11:28:08;7.90;;;4.10;;
9689;SDS011;4884;42.614;23.340;2023-07-20T11:30:36;8.80;;;4.10;;
9689;SDS011;4884;42.614;23.340;2023-07-20T11:33:02;6.35;;;4.72;;
9689;SDS011;4884;42.614;23.340;2023-07-20T11:35:27;8.75;;;4.50;;
9689;SDS011;4884;42.614;23.340;2023-07-20T11:37:53;10.88;;;4.45;;
9689;SDS011;4884;42.614;23.340;2023-07-20T11:40:20;8.50;;;4.45;;
9689;SDS011;4884;42.614;23.340;2023-07-20T11:42:45;10.88;;;4.45;;
9689;SDS011;4884;42.614;23.340;2023-07-20T11:45:11;5.90;;;4.85;;
9689;SDS011;4884;42.614;23.340;2023-07-20T11:47:40;8.07;;;4.13;;
9689;SDS011;4884;42.614;23.340;2023-07-20T11:50:07;10.68;;;4.95;;
9689;SDS011;4884;42.614;23.340;2023-07-20T11:52:32;8.35;;;4.88;;
9689;SDS011;4884;42.614;23.340;2023-07-20T11:54:58;10.73;;;4.90;;
9689;SDS011;4884;42.614;23.340;2023-07-20T11:57:24;7.57;;;5.07;;
9689;SDS011;4884;42.614;23.340;2023-07-20T11:59:52;8.10;;;4.82;;
9689;SDS011;4884;42.614;23.340;2023-07-20T12:02:29;6.32;;;4.72;;
9689;SDS011;4884;42.614;23.340;2023-07-20T12:04:54;9.65;;;6.40;;
9689;SDS011;4884;42.614;23.340;2023-07-20T12:07:20;13.82;;;6.47;;
9689;SDS011;4884;42.614;23.340;2023-07-20T12:10:02;10.80;;;5.65;;
9689;SDS011;4884;42.614;23.340;2023-07-20T12:12:32;10.60;;;6.57;;
9689;SDS011;4884;42.614;23.340;2023-07-20T12:17:46;6.88;;;5.45;;
9689;SDS011;4884;42.614;23.340;2023-07-20T12:20:24;7.85;;;5.50;;
9689;SDS011;4884;42.614;23.340;2023-07-20T12:23:09;9.75;;;5.07;;
9689;SDS011;4884;42.614;23.340;2023-07-20T12:25:40;11.43;;;5.85;;
9689;SDS011;4884;42.614;23.340;2023-07-20T12:28:13;9.40;;;5.65;;
9689;SDS011;4884;42.614;23.340;2023-07-20T12:30:40;8.60;;;4.82;;
9689;SDS011;4884;42.614;23.340;2023-07-20T12:33:06;5.03;;;4.30;;
9689;SDS011;4884;42.614;23.340;2023-07-20T12:35:32;7.75;;;5.95;;
9689;SDS011;4884;42.614;23.340;2023-07-20T12:37:57;8.77;;;4.85;;
9689;SDS011;4884;42.614;23.340;2023-07-20T12:40:23;6.35;;;4.35;;
9689;SDS011;4884;42.614;23.340;2023-07-20T12:42:49;7.82;;;4.80;;
9689;SDS011;4884;42.614;23.340;2023-07-20T12:45:14;8.75;;;5.40;;
9689;SDS011;4884;42.614;23.340;2023-07-20T12:47:40;6.40;;;3.80;;
9689;SDS011;4884;42.614;23.340;2023-07-20T12:50:07;15.93;;;5.30;;
9689;SDS011;4884;42.614;23.340;2023-07-20T12:52:35;7.80;;;5.25;;
9689;SDS011;4884;42.614;23.340;2023-07-20T12:55:02;9.25;;;5.20;;
9689;SDS011;4884;42.614;23.340;2023-07-20T12:57:27;7.30;;;4.72;;
9689;SDS011;4884;42.614;23.340;2023-07-20T12:59:53;12.00;;;5.15;;
9689;SDS011;4884;42.614;23.340;2023-07-20T13:02:18;7.57;;;4.20;;
9689;SDS011;4884;42.614;23.340;2023-07-20T13:04:43;8.63;;;4.28;;
9689;SDS011;4884;42.614;23.340;2023-07-20T13:07:09;8.35;;;4.00;;
9689;SDS011;4884;42.614;23.340;2023-07-20T13:09:36;8.55;;;4.07;;
9689;SDS011;4884;42.614;23.340;2023-07-20T13:12:01;8.95;;;3.50;;
9689;SDS011;4884;42.614;23.340;2023-07-20T13:14:26;11.13;;;4.97;;
9689;SDS011;4884;42.614;23.340;2023-07-20T13:16:54;9.98;;;4.57;;
9689;SDS011;4884;42.614;23.340;2023-07-20T13:19:20;10.10;;;4.43;;
9689;SDS011;4884;42.614;23.340;2023-07-20T13:21:45;11.10;;;4.35;;
9689;SDS011;4884;42.614;23.340;2023-07-20T13:24:11;8.50;;;4.60;;
9689;SDS011;4884;42.614;23.340;2023-07-20T13:26:36;12.43;;;5.75;;
9689;SDS011;4884;42.614;23.340;2023-07-20T13:29:01;12.48;;;4.40;;
9689;SDS011;4884;42.614;23.340;2023-07-20T13:31:27;9.15;;;4.93;;
9689;SDS011;4884;42.614;23.340;2023-07-20T13:33:53;13.38;;;5.22;;
9689;SDS011;4884;42.614;23.340;2023-07-20T13:36:18;8.93;;;4.25;;
9689;SDS011;4884;42.614;23.340;2023-07-20T13:38:45;9.43;;;4.45;;
9689;SDS011;4884;42.614;23.340;2023-07-20T13:41:11;10.18;;;3.58;;
9689;SDS011;4884;42.614;23.340;2023-07-20T13:43:36;7.10;;;3.97;;
9689;SDS011;4884;42.614;23.340;2023-07-20T13:46:02;9.52;;;3.47;;
9689;SDS011;4884;42.614;23.340;2023-07-20T13:48:27;5.47;;;3.50;;
9689;SDS011;4884;42.614;23.340;2023-07-20T13:50:53;6.65;;;3.40;;
9689;SDS011;4884;42.614;23.340;2023-07-20T13:53:19;6.93;;;3.78;;
9689;SDS011;4884;42.614;23.340;2023-07-20T13:55:44;8.65;;;3.88;;
9689;SDS011;4884;42.614;23.340;2023-07-20T13:58:10;8.10;;;3.38;;
9689;SDS011;4884;42.614;23.340;2023-07-20T14:00:35;8.13;;;3.35;;
9689;SDS011;4884;42.614;23.340;2023-07-20T14:03:01;7.03;;;3.20;;
9689;SDS011;4884;42.614;23.340;2023-07-20T14:05:26;5.93;;;3.50;;
9689;SDS011;4884;42.614;23.340;2023-07-20T14:07:53;9.40;;;3.63;;
9689;SDS011;4884;42.614;23.340;2023-07-20T14:10:18;11.10;;;3.35;;
9689;SDS011;4884;42.614;23.340;2023-07-20T14:12:44;9.85;;;4.03;;
9689;SDS011;4884;42.614;23.340;2023-07-20T14:15:10;6.93;;;3.63;;
9689;SDS011;4884;42.614;23.340;2023-07-20T14:17:35;10.80;;;3.75;;
9689;SDS011;4884;42.614;23.340;2023-07-20T14:20:01;11.27;;;4.68;;
9689;SDS011;4884;42.614;23.340;2023-07-20T14:22:30;9.02;;;3.42;;
9689;SDS011;4884;42.614;23.340;2023-07-20T14:24:55;9.48;;;3.75;;
9689;SDS011;4884;42.614;23.340;2023-07-20T14:27:21;5.50;;;3.47;;
9689;SDS011;4884;42.614;23.340;2023-07-20T14:29:46;9.50;;;3.38;;
9689;SDS011;4884;42.614;23.340;2023-07-20T14:32:12;27.48;;;4.55;;
9689;SDS011;4884;42.614;23.340;2023-07-20T14:34:37;4.95;;;3.60;;
9689;SDS011;4884;42.614;23.340;2023-07-20T14:37:02;9.32;;;3.38;;
9689;SDS011;4884;42.614;23.340;2023-07-20T14:39:29;9.13;;;3.20;;
9689;SDS011;4884;42.614;23.340;2023-07-20T14:41:54;6.50;;;3.05;;
9689;SDS011;4884;42.614;23.340;2023-07-20T14:44:20;4.82;;;3.55;;
9689;SDS011;4884;42.614;23.340;2023-07-20T14:46:46;4.43;;;2.88;;
9689;SDS011;4884;42.614;23.340;2023-07-20T14:49:11;7.57;;;3.67;;
9689;SDS011;4884;42.614;23.340;2023-07-20T14:51:36;14.07;;;4.78;;
9689;SDS011;4884;42.614;23.340;2023-07-20T14:54:08;8.55;;;3.53;;
9689;SDS011;4884;42.614;23.340;2023-07-20T14:56:33;8.18;;;3.97;;
9689;SDS011;4884;42.614;23.340;2023-07-20T14:58:59;7.97;;;3.45;;
9689;SDS011;4884;42.614;23.340;2023-07-20T15:01:25;9.50;;;4.03;;
9689;SDS011;4884;42.614;23.340;2023-07-20T15:03:51;7.28;;;3.75;;
9689;SDS011;4884;42.614;23.340;2023-07-20T15:06:18;9.23;;;3.60;;
9689;SDS011;4884;42.614;23.340;2023-07-20T15:08:44;8.43;;;4.00;;
9689;SDS011;4884;42.614;23.340;2023-07-20T15:11:09;7.53;;;3.70;;
9689;SDS011;4884;42.614;23.340;2023-07-20T15:13:34;5.45;;;3.45;;